sensor_id;sensor_type;location;lat;lon;timestamp;P1;durP1;ratioP1;P2;durP2;ratioP2
12312;SDS011;6220;53.580;9.758;2023-08-01T00:02:21;2.03;;;1.60;;
12312;SDS011;6220;53.580;9.758;2023-08-01T00:04:46;4.23;;;1.70;;
12312;SDS011;6220;53.580;9.758;2023-08-01T00:07:11;2.70;;;1.60;;
12312;SDS011;6220;53.580;9.758;2023-08-01T00:09:37;2.57;;;1.40;;
12312;SDS011;6220;53.580;9.758;2023-08-01T00:12:02;4.50;;;4.10;;
12312;SDS011;6220;53.580;9.758;2023-08-01T00:14:28;6.23;;;4.03;;
12312;SDS011;6220;53.580;9.758;2023-08-01T00:16:53;2.20;;;2.00;;
12312;SDS011;6220;53.580;9.758;2023-08-01T00:19:18;2.97;;;2.07;;
12312;SDS011;6220;53.580;9.758;2023-08-01T00:21:44;1.80;;;1.60;;
12312;SDS011;6220;53.580;9.758;2023-08-01T00:24:09;1.57;;;1.47;;
12312;SDS011;6220;53.580;9.758;2023-08-01T00:26:34;2.23;;;1.90;;
12312;SDS011;6220;53.580;9.758;2023-08-01T00:29:00;2.20;;;1.70;;
12312;SDS011;6220;53.580;9.758;2023-08-01T00:31:26;1.70;;;1.60;;
12312;SDS011;6220;53.580;9.758;2023-08-01T00:33:51;1.50;;;1.40;;
12312;SDS011;6220;53.580;9.758;2023-08-01T00:36:16;3.13;;;1.97;;
12312;SDS011;6220;53.580;9.758;2023-08-01T00:38:42;2.80;;;1.50;;
12312;SDS011;6220;53.580;9.758;2023-08-01T00:41:08;1.73;;;1.30;;
12312;SDS011;6220;53.580;9.758;2023-08-01T00:43:34;3.13;;;1.70;;
12312;SDS011;6220;53.580;9.758;2023-08-01T00:46:00;1.97;;;1.73;;
12312;SDS011;6220;53.580;9.758;2023-08-01T00:48:28;2.57;;;1.90;;
12312;SDS011;6220;53.580;9.758;2023-08-01T00:50:54;4.20;;;1.70;;
12312;SDS011;6220;53.580;9.758;2023-08-01T00:53:21;1.73;;;1.63;;
12312;SDS011;6220;53.580;9.758;2023-08-01T00:55:47;1.73;;;1.63;;
12312;SDS011;6220;53.580;9.758;2023-08-01T00:58:12;2.70;;;2.00;;
12312;SDS011;6220;53.580;9.758;2023-08-01T01:00:38;3.90;;;1.80;;
12312;SDS011;6220;53.580;9.758;2023-08-01T01:03:04;2.50;;;1.80;;
12312;SDS011;6220;53.580;9.758;2023-08-01T01:05:35;2.80;;;2.00;;
12312;SDS011;6220;53.580;9.758;2023-08-01T01:08:02;2.37;;;2.03;;
12312;SDS011;6220;53.580;9.758;2023-08-01T01:13:50;2.33;;;2.13;;
12312;SDS011;6220;53.580;9.758;2023-08-01T01:16:19;2.73;;;2.17;;
12312;SDS011;6220;53.580;9.758;2023-08-01T01:18:45;2.77;;;2.20;;
12312;SDS011;6220;53.580;9.758;2023-08-01T01:21:10;2.90;;;2.70;;
12312;SDS011;6220;53.580;9.758;2023-08-01T01:23:36;6.77;;;2.97;;
12312;SDS011;6220;53.580;9.758;2023-08-01T01:26:08;5.03;;;2.57;;
12312;SDS011;6220;53.580;9.758;2023-08-01T01:28:34;3.77;;;3.10;;
12312;SDS011;6220;53.580;9.758;2023-08-01T01:31:00;3.97;;;2.73;;
12312;SDS011;6220;53.580;9.758;2023-08-01T01:33:26;3.73;;;3.20;;
12312;SDS011;6220;53.580;9.758;2023-08-01T01:35:52;3.30;;;3.10;;
12312;SDS011;6220;53.580;9.758;2023-08-01T01:38:19;3.70;;;3.03;;
12312;SDS011;6220;53.580;9.758;2023-08-01T01:40:44;4.30;;;3.60;;
12312;SDS011;6220;53.580;9.758;2023-08-01T01:43:09;5.63;;;3.60;;
12312;SDS011;6220;53.580;9.758;2023-08-01T01:45:35;6.43;;;3.30;;
12312;SDS011;6220;53.580;9.758;2023-08-01T01:48:00;5.37;;;4.37;;
12312;SDS011;6220;53.580;9.758;2023-08-01T01:50:26;4.57;;;4.17;;
12312;SDS011;6220;53.580;9.758;2023-08-01T01:52:51;4.40;;;4.00;;
12312;SDS011;6220;53.580;9.758;2023-08-01T01:55:17;4.73;;;3.80;;
12312;SDS011;6220;53.580;9.758;2023-08-01T01:57:42;5.67;;;4.50;;
12312;SDS011;6220;53.580;9.758;2023-08-01T02:00:08;6.53;;;4.90;;
12312;SDS011;6220;53.580;9.758;2023-08-01T02:02:38;5.57;;;5.07;;
12312;SDS011;6220;53.580;9.758;2023-08-01T02:05:03;5.73;;;4.57;;
12312;SDS011;6220;53.580;9.758;2023-08-01T02:07:29;5.40;;;4.90;;
12312;SDS011;6220;53.580;9.758;2023-08-01T02:09:54;6.10;;;5.50;;
12312;SDS011;6220;53.580;9.758;2023-08-01T02:12:20;6.00;;;5.40;;
12312;SDS011;6220;53.580;9.758;2023-08-01T02:14:45;6.00;;;4.97;;
12312;SDS011;6220;53.580;9.758;2023-08-01T02:17:12;6.43;;;5.83;;
12312;SDS011;6220;53.580;9.758;2023-08-01T02:19:37;8.33;;;6.57;;
12312;SDS011;6220;53.580;9.758;2023-08-01T02:22:03;7.70;;;6.10;;
12312;SDS011;6220;53.580;9.758;2023-08-01T02:24:28;9.57;;;5.93;;
12312;SDS011;6220;53.580;9.758;2023-08-01T02:26:54;7.80;;;7.03;;
12312;SDS011;6220;53.580;9.758;2023-08-01T02:29:20;9.37;;;7.83;;
12312;SDS011;6220;53.580;9.758;2023-08-01T02:31:46;8.83;;;7.90;;
12312;SDS011;6220;53.580;9.758;2023-08-01T02:34:11;8.60;;;7.80;;
12312;SDS011;6220;53.580;9.758;2023-08-01T02:36:36;9.97;;;8.93;;
12312;SDS011;6220;53.580;9.758;2023-08-01T02:39:02;10.40;;;8.83;;
12312;SDS011;6220;53.580;9.758;2023-08-01T02:41:27;9.20;;;8.40;;
12312;SDS011;6220;53.580;9.758;2023-08-01T02:43:52;11.00;;;9.90;;
12312;SDS011;6220;53.580;9.758;2023-08-01T02:46:18;10.73;;;9.03;;
12312;SDS011;6220;53.580;9.758;2023-08-01T02:48:43;10.80;;;9.67;;
12312;SDS011;6220;53.580;9.758;2023-08-01T02:51:09;9.10;;;8.30;;
12312;SDS011;6220;53.580;9.758;2023-08-01T02:53:35;10.73;;;9.63;;
12312;SDS011;6220;53.580;9.758;2023-08-01T02:56:01;10.30;;;9.20;;
12312;SDS011;6220;53.580;9.758;2023-08-01T02:58:27;11.67;;;10.00;;
12312;SDS011;6220;53.580;9.758;2023-08-01T03:00:52;12.13;;;10.10;;
12312;SDS011;6220;53.580;9.758;2023-08-01T03:03:18;11.13;;;10.03;;
12312;SDS011;6220;53.580;9.758;2023-08-01T03:05:43;11.17;;;9.87;;
12312;SDS011;6220;53.580;9.758;2023-08-01T03:08:08;10.97;;;9.97;;
12312;SDS011;6220;53.580;9.758;2023-08-01T03:10:34;12.33;;;11.17;;
12312;SDS011;6220;53.580;9.758;2023-08-01T03:12:59;11.87;;;10.67;;
12312;SDS011;6220;53.580;9.758;2023-08-01T03:15:26;10.73;;;9.63;;
12312;SDS011;6220;53.580;9.758;2023-08-01T03:17:52;11.20;;;9.97;;
12312;SDS011;6220;53.580;9.758;2023-08-01T03:20:17;12.90;;;10.73;;
12312;SDS011;6220;53.580;9.758;2023-08-01T03:22:43;11.33;;;9.83;;
12312;SDS011;6220;53.580;9.758;2023-08-01T03:25:08;11.20;;;10.03;;
12312;SDS011;6220;53.580;9.758;2023-08-01T03:27:34;10.63;;;9.73;;
12312;SDS011;6220;53.580;9.758;2023-08-01T03:30:00;10.53;;;9.57;;
12312;SDS011;6220;53.580;9.758;2023-08-01T03:32:25;11.07;;;9.97;;
12312;SDS011;6220;53.580;9.758;2023-08-01T03:34:51;11.00;;;9.93;;
12312;SDS011;6220;53.580;9.758;2023-08-01T03:37:16;11.87;;;10.67;;
12312;SDS011;6220;53.580;9.758;2023-08-01T03:39:43;12.03;;;10.77;;
12312;SDS011;6220;53.580;9.758;2023-08-01T03:42:08;12.27;;;10.60;;
12312;SDS011;6220;53.580;9.758;2023-08-01T03:44:33;11.30;;;9.97;;
12312;SDS011;6220;53.580;9.758;2023-08-01T03:47:00;14.10;;;9.93;;
12312;SDS011;6220;53.580;9.758;2023-08-01T03:49:25;12.97;;;10.50;;
12312;SDS011;6220;53.580;9.758;2023-08-01T03:54:21;12.97;;;10.03;;
12312;SDS011;6220;53.580;9.758;2023-08-01T03:56:47;11.30;;;10.13;;
12312;SDS011;6220;53.580;9.758;2023-08-01T03:59:13;11.30;;;10.17;;
12312;SDS011;6220;53.580;9.758;2023-08-01T04:01:39;11.50;;;10.20;;
12312;SDS011;6220;53.580;9.758;2023-08-01T04:04:04;12.33;;;10.10;;
12312;SDS011;6220;53.580;9.758;2023-08-01T04:06:30;11.60;;;10.40;;
12312;SDS011;6220;53.580;9.758;2023-08-01T04:08:55;12.20;;;10.70;;
12312;SDS011;6220;53.580;9.758;2023-08-01T04:11:21;17.63;;;11.30;;
12312;SDS011;6220;53.580;9.758;2023-08-01T04:13:47;14.53;;;11.20;;
12312;SDS011;6220;53.580;9.758;2023-08-01T04:16:12;11.77;;;10.60;;
12312;SDS011;6220;53.580;9.758;2023-08-01T04:18:38;14.27;;;11.83;;
12312;SDS011;6220;53.580;9.758;2023-08-01T04:21:04;11.43;;;10.33;;
12312;SDS011;6220;53.580;9.758;2023-08-01T04:23:29;14.73;;;11.40;;
12312;SDS011;6220;53.580;9.758;2023-08-01T04:25:55;13.77;;;11.60;;
12312;SDS011;6220;53.580;9.758;2023-08-01T04:28:20;12.60;;;11.33;;
12312;SDS011;6220;53.580;9.758;2023-08-01T04:30:49;12.93;;;11.70;;
12312;SDS011;6220;53.580;9.758;2023-08-01T04:33:15;12.90;;;10.33;;
12312;SDS011;6220;53.580;9.758;2023-08-01T04:35:40;13.07;;;11.77;;
12312;SDS011;6220;53.580;9.758;2023-08-01T04:38:05;12.53;;;11.03;;
12312;SDS011;6220;53.580;9.758;2023-08-01T04:40:31;12.27;;;11.07;;
12312;SDS011;6220;53.580;9.758;2023-08-01T04:42:56;14.40;;;11.20;;
12312;SDS011;6220;53.580;9.758;2023-08-01T04:45:21;12.30;;;11.10;;
12312;SDS011;6220;53.580;9.758;2023-08-01T04:47:47;12.43;;;11.17;;
12312;SDS011;6220;53.580;9.758;2023-08-01T04:50:12;12.00;;;10.63;;
12312;SDS011;6220;53.580;9.758;2023-08-01T04:52:37;11.93;;;10.73;;
12312;SDS011;6220;53.580;9.758;2023-08-01T04:55:03;12.93;;;10.00;;
12312;SDS011;6220;53.580;9.758;2023-08-01T04:57:29;16.70;;;10.67;;
12312;SDS011;6220;53.580;9.758;2023-08-01T04:59:55;11.43;;;9.87;;
12312;SDS011;6220;53.580;9.758;2023-08-01T05:02:21;11.57;;;10.10;;
12312;SDS011;6220;53.580;9.758;2023-08-01T05:04:46;10.50;;;9.40;;
12312;SDS011;6220;53.580;9.758;2023-08-01T05:07:11;10.23;;;9.23;;
12312;SDS011;6220;53.580;9.758;2023-08-01T05:09:37;11.70;;;8.60;;
12312;SDS011;6220;53.580;9.758;2023-08-01T05:12:02;11.23;;;9.23;;
12312;SDS011;6220;53.580;9.758;2023-08-01T05:14:28;11.33;;;8.70;;
12312;SDS011;6220;53.580;9.758;2023-08-01T05:16:53;8.57;;;7.67;;
12312;SDS011;6220;53.580;9.758;2023-08-01T05:19:18;10.50;;;7.97;;
12312;SDS011;6220;53.580;9.758;2023-08-01T05:21:43;9.70;;;8.80;;
12312;SDS011;6220;53.580;9.758;2023-08-01T05:24:09;10.07;;;8.77;;
12312;SDS011;6220;53.580;9.758;2023-08-01T05:26:36;10.63;;;8.23;;
12312;SDS011;6220;53.580;9.758;2023-08-01T05:29:01;9.50;;;8.53;;
12312;SDS011;6220;53.580;9.758;2023-08-01T05:31:26;10.30;;;8.33;;
12312;SDS011;6220;53.580;9.758;2023-08-01T05:33:52;11.43;;;7.90;;
12312;SDS011;6220;53.580;9.758;2023-08-01T05:36:17;9.77;;;7.87;;
12312;SDS011;6220;53.580;9.758;2023-08-01T05:38:42;10.37;;;8.20;;
12312;SDS011;6220;53.580;9.758;2023-08-01T05:41:08;10.20;;;6.83;;
12312;SDS011;6220;53.580;9.758;2023-08-01T05:43:33;9.90;;;7.70;;
12312;SDS011;6220;53.580;9.758;2023-08-01T05:45:58;7.83;;;6.90;;
12312;SDS011;6220;53.580;9.758;2023-08-01T05:48:24;13.40;;;7.50;;
12312;SDS011;6220;53.580;9.758;2023-08-01T05:50:49;8.07;;;5.90;;
12312;SDS011;6220;53.580;9.758;2023-08-01T05:53:14;10.17;;;7.40;;
12312;SDS011;6220;53.580;9.758;2023-08-01T05:55:40;9.77;;;6.67;;
12312;SDS011;6220;53.580;9.758;2023-08-01T05:58:05;14.27;;;7.63;;
12312;SDS011;6220;53.580;9.758;2023-08-01T06:00:30;8.40;;;7.00;;
12312;SDS011;6220;53.580;9.758;2023-08-01T06:02:56;7.13;;;6.40;;
12312;SDS011;6220;53.580;9.758;2023-08-01T06:05:21;8.83;;;6.03;;
12312;SDS011;6220;53.580;9.758;2023-08-01T06:07:46;9.47;;;6.50;;
12312;SDS011;6220;53.580;9.758;2023-08-01T06:10:12;10.13;;;6.40;;
12312;SDS011;6220;53.580;9.758;2023-08-01T06:12:37;10.93;;;6.77;;
12312;SDS011;6220;53.580;9.758;2023-08-01T06:15:03;10.67;;;6.20;;
12312;SDS011;6220;53.580;9.758;2023-08-01T06:17:29;8.90;;;6.07;;
12312;SDS011;6220;53.580;9.758;2023-08-01T06:19:54;7.80;;;5.80;;
12312;SDS011;6220;53.580;9.758;2023-08-01T06:22:20;8.27;;;5.93;;
12312;SDS011;6220;53.580;9.758;2023-08-01T06:24:45;8.97;;;6.50;;
12312;SDS011;6220;53.580;9.758;2023-08-01T06:27:10;8.30;;;5.77;;
12312;SDS011;6220;53.580;9.758;2023-08-01T06:29:36;10.73;;;5.67;;
12312;SDS011;6220;53.580;9.758;2023-08-01T06:32:02;7.73;;;5.30;;
12312;SDS011;6220;53.580;9.758;2023-08-01T06:34:28;6.40;;;5.70;;
12312;SDS011;6220;53.580;9.758;2023-08-01T06:36:53;8.70;;;5.07;;
12312;SDS011;6220;53.580;9.758;2023-08-01T06:39:19;9.80;;;5.60;;
12312;SDS011;6220;53.580;9.758;2023-08-01T06:41:44;6.20;;;5.00;;
12312;SDS011;6220;53.580;9.758;2023-08-01T06:44:09;7.57;;;4.73;;
12312;SDS011;6220;53.580;9.758;2023-08-01T06:46:35;10.07;;;4.93;;
12312;SDS011;6220;53.580;9.758;2023-08-01T06:49:00;6.87;;;4.60;;
12312;SDS011;6220;53.580;9.758;2023-08-01T06:51:26;7.53;;;4.20;;
12312;SDS011;6220;53.580;9.758;2023-08-01T06:53:52;6.97;;;4.13;;
12312;SDS011;6220;53.580;9.758;2023-08-01T06:56:17;6.53;;;4.20;;
12312;SDS011;6220;53.580;9.758;2023-08-01T06:58:43;6.10;;;4.17;;
12312;SDS011;6220;53.580;9.758;2023-08-01T07:01:08;7.87;;;4.50;;
12312;SDS011;6220;53.580;9.758;2023-08-01T07:03:33;10.73;;;3.93;;
12312;SDS011;6220;53.580;9.758;2023-08-01T07:05:59;8.63;;;4.47;;
12312;SDS011;6220;53.580;9.758;2023-08-01T07:08:25;6.90;;;3.77;;
12312;SDS011;6220;53.580;9.758;2023-08-01T07:10:50;5.33;;;3.83;;
12312;SDS011;6220;53.580;9.758;2023-08-01T07:13:15;7.47;;;4.20;;
12312;SDS011;6220;53.580;9.758;2023-08-01T07:15:41;6.53;;;3.53;;
12312;SDS011;6220;53.580;9.758;2023-08-01T07:18:07;6.40;;;3.60;;
12312;SDS011;6220;53.580;9.758;2023-08-01T07:20:32;6.27;;;3.57;;
12312;SDS011;6220;53.580;9.758;2023-08-01T07:22:58;4.83;;;3.60;;
12312;SDS011;6220;53.580;9.758;2023-08-01T07:25:23;8.13;;;3.83;;
12312;SDS011;6220;53.580;9.758;2023-08-01T07:27:50;10.00;;;4.00;;
12312;SDS011;6220;53.580;9.758;2023-08-01T07:30:15;6.57;;;4.33;;
12312;SDS011;6220;53.580;9.758;2023-08-01T07:32:40;6.13;;;3.93;;
12312;SDS011;6220;53.580;9.758;2023-08-01T07:35:08;5.40;;;3.87;;
12312;SDS011;6220;53.580;9.758;2023-08-01T07:37:33;6.93;;;4.10;;
12312;SDS011;6220;53.580;9.758;2023-08-01T07:39:59;12.50;;;4.00;;
12312;SDS011;6220;53.580;9.758;2023-08-01T07:42:24;13.07;;;4.57;;
12312;SDS011;6220;53.580;9.758;2023-08-01T07:44:50;6.63;;;4.30;;
12312;SDS011;6220;53.580;9.758;2023-08-01T07:47:15;5.57;;;3.70;;
12312;SDS011;6220;53.580;9.758;2023-08-01T07:49:41;6.53;;;3.67;;
12312;SDS011;6220;53.580;9.758;2023-08-01T07:52:06;13.17;;;5.10;;
12312;SDS011;6220;53.580;9.758;2023-08-01T07:54:32;7.03;;;3.80;;
12312;SDS011;6220;53.580;9.758;2023-08-01T07:56:57;6.47;;;3.60;;
12312;SDS011;6220;53.580;9.758;2023-08-01T07:59:22;9.60;;;4.50;;
12312;SDS011;6220;53.580;9.758;2023-08-01T08:01:48;10.13;;;3.97;;
12312;SDS011;6220;53.580;9.758;2023-08-01T08:04:13;11.57;;;5.47;;
12312;SDS011;6220;53.580;9.758;2023-08-01T08:06:39;11.53;;;4.77;;
12312;SDS011;6220;53.580;9.758;2023-08-01T08:09:05;6.60;;;4.10;;
12312;SDS011;6220;53.580;9.758;2023-08-01T08:11:30;8.90;;;4.17;;
12312;SDS011;6220;53.580;9.758;2023-08-01T08:13:56;10.90;;;5.00;;
12312;SDS011;6220;53.580;9.758;2023-08-01T08:16:21;10.10;;;4.63;;
12312;SDS011;6220;53.580;9.758;2023-08-01T08:18:46;9.60;;;4.63;;
12312;SDS011;6220;53.580;9.758;2023-08-01T08:21:12;9.00;;;4.83;;
12312;SDS011;6220;53.580;9.758;2023-08-01T08:23:38;8.40;;;4.20;;
12312;SDS011;6220;53.580;9.758;2023-08-01T08:26:03;8.87;;;4.40;;
12312;SDS011;6220;53.580;9.758;2023-08-01T08:28:30;10.77;;;4.77;;
12312;SDS011;6220;53.580;9.758;2023-08-01T08:30:58;9.70;;;4.00;;
12312;SDS011;6220;53.580;9.758;2023-08-01T08:33:23;6.37;;;4.30;;
12312;SDS011;6220;53.580;9.758;2023-08-01T08:35:49;7.83;;;4.40;;
12312;SDS011;6220;53.580;9.758;2023-08-01T08:38:15;8.50;;;4.60;;
12312;SDS011;6220;53.580;9.758;2023-08-01T08:40:41;8.30;;;4.67;;
12312;SDS011;6220;53.580;9.758;2023-08-01T08:43:24;7.50;;;4.30;;
12312;SDS011;6220;53.580;9.758;2023-08-01T08:45:51;8.77;;;4.50;;
12312;SDS011;6220;53.580;9.758;2023-08-01T08:48:20;5.83;;;4.00;;
12312;SDS011;6220;53.580;9.758;2023-08-01T08:50:46;5.57;;;3.70;;
12312;SDS011;6220;53.580;9.758;2023-08-01T08:53:12;7.20;;;3.73;;
12312;SDS011;6220;53.580;9.758;2023-08-01T08:55:41;5.00;;;4.00;;
12312;SDS011;6220;53.580;9.758;2023-08-01T08:58:07;4.87;;;3.37;;
12312;SDS011;6220;53.580;9.758;2023-08-01T09:00:34;4.43;;;3.80;;
12312;SDS011;6220;53.580;9.758;2023-08-01T09:03:00;8.07;;;4.33;;
12312;SDS011;6220;53.580;9.758;2023-08-01T09:05:27;6.97;;;4.27;;
12312;SDS011;6220;53.580;9.758;2023-08-01T09:07:59;5.67;;;4.00;;
12312;SDS011;6220;53.580;9.758;2023-08-01T09:10:27;4.83;;;3.60;;
12312;SDS011;6220;53.580;9.758;2023-08-01T09:12:52;7.83;;;3.67;;
12312;SDS011;6220;53.580;9.758;2023-08-01T09:15:18;5.17;;;3.30;;
12312;SDS011;6220;53.580;9.758;2023-08-01T09:17:47;6.80;;;3.17;;
12312;SDS011;6220;53.580;9.758;2023-08-01T09:20:16;6.57;;;3.60;;
12312;SDS011;6220;53.580;9.758;2023-08-01T09:22:45;6.13;;;3.43;;
12312;SDS011;6220;53.580;9.758;2023-08-01T09:25:11;5.40;;;3.60;;
12312;SDS011;6220;53.580;9.758;2023-08-01T09:27:37;5.53;;;3.20;;
12312;SDS011;6220;53.580;9.758;2023-08-01T09:30:10;6.03;;;3.47;;
12312;SDS011;6220;53.580;9.758;2023-08-01T09:32:38;6.07;;;3.30;;
12312;SDS011;6220;53.580;9.758;2023-08-01T09:35:04;4.53;;;2.93;;
12312;SDS011;6220;53.580;9.758;2023-08-01T09:37:39;5.53;;;2.83;;
12312;SDS011;6220;53.580;9.758;2023-08-01T09:40:06;4.57;;;2.50;;
12312;SDS011;6220;53.580;9.758;2023-08-01T09:42:39;2.80;;;2.00;;
12312;SDS011;6220;53.580;9.758;2023-08-01T09:45:11;4.30;;;2.20;;
12312;SDS011;6220;53.580;9.758;2023-08-01T09:47:38;5.67;;;2.97;;
12312;SDS011;6220;53.580;9.758;2023-08-01T09:50:04;4.07;;;2.37;;
12312;SDS011;6220;53.580;9.758;2023-08-01T09:52:30;3.47;;;2.27;;
12312;SDS011;6220;53.580;9.758;2023-08-01T09:54:55;4.20;;;2.33;;
12312;SDS011;6220;53.580;9.758;2023-08-01T09:57:20;4.57;;;2.43;;
12312;SDS011;6220;53.580;9.758;2023-08-01T09:59:47;3.67;;;2.30;;
12312;SDS011;6220;53.580;9.758;2023-08-01T10:02:14;5.10;;;1.97;;
12312;SDS011;6220;53.580;9.758;2023-08-01T10:04:40;4.97;;;1.97;;
12312;SDS011;6220;53.580;9.758;2023-08-01T10:07:08;4.07;;;1.90;;
12312;SDS011;6220;53.580;9.758;2023-08-01T10:09:34;9.97;;;2.20;;
12312;SDS011;6220;53.580;9.758;2023-08-01T10:12:02;2.67;;;1.87;;
12312;SDS011;6220;53.580;9.758;2023-08-01T10:14:30;3.07;;;1.70;;
12312;SDS011;6220;53.580;9.758;2023-08-01T10:16:57;2.60;;;1.80;;
12312;SDS011;6220;53.580;9.758;2023-08-01T10:19:23;3.93;;;1.80;;
12312;SDS011;6220;53.580;9.758;2023-08-01T10:21:50;1.90;;;1.30;;
12312;SDS011;6220;53.580;9.758;2023-08-01T10:24:15;3.30;;;1.47;;
12312;SDS011;6220;53.580;9.758;2023-08-01T10:26:44;3.67;;;1.57;;
12312;SDS011;6220;53.580;9.758;2023-08-01T10:29:09;4.33;;;1.57;;
12312;SDS011;6220;53.580;9.758;2023-08-01T10:31:35;1.93;;;1.50;;
12312;SDS011;6220;53.580;9.758;2023-08-01T10:34:04;3.70;;;1.63;;
12312;SDS011;6220;53.580;9.758;2023-08-01T10:36:31;3.00;;;1.50;;
12312;SDS011;6220;53.580;9.758;2023-08-01T10:38:58;2.27;;;1.77;;
12312;SDS011;6220;53.580;9.758;2023-08-01T10:46:47;1.87;;;1.40;;
12312;SDS011;6220;53.580;9.758;2023-08-01T10:49:16;2.80;;;1.13;;
12312;SDS011;6220;53.580;9.758;2023-08-01T10:51:42;5.47;;;1.20;;
12312;SDS011;6220;53.580;9.758;2023-08-01T10:54:17;3.07;;;1.33;;
12312;SDS011;6220;53.580;9.758;2023-08-01T10:56:46;4.23;;;1.63;;
12312;SDS011;6220;53.580;9.758;2023-08-01T10:59:13;4.70;;;1.70;;
12312;SDS011;6220;53.580;9.758;2023-08-01T11:01:43;5.03;;;1.70;;
12312;SDS011;6220;53.580;9.758;2023-08-01T11:04:14;6.73;;;1.70;;
12312;SDS011;6220;53.580;9.758;2023-08-01T11:06:49;4.03;;;1.40;;
12312;SDS011;6220;53.580;9.758;2023-08-01T11:09:18;4.20;;;1.53;;
12312;SDS011;6220;53.580;9.758;2023-08-01T11:11:45;2.83;;;1.60;;
12312;SDS011;6220;53.580;9.758;2023-08-01T11:14:12;3.17;;;1.57;;
12312;SDS011;6220;53.580;9.758;2023-08-01T11:16:38;5.63;;;1.80;;
12312;SDS011;6220;53.580;9.758;2023-08-01T11:19:06;3.20;;;1.50;;
12312;SDS011;6220;53.580;9.758;2023-08-01T11:21:31;2.60;;;1.30;;
12312;SDS011;6220;53.580;9.758;2023-08-01T11:24:00;2.80;;;1.20;;
12312;SDS011;6220;53.580;9.758;2023-08-01T11:26:31;1.37;;;1.20;;
12312;SDS011;6220;53.580;9.758;2023-08-01T11:29:00;1.93;;;1.23;;
12312;SDS011;6220;53.580;9.758;2023-08-01T11:31:30;1.13;;;0.83;;
12312;SDS011;6220;53.580;9.758;2023-08-01T11:33:56;1.37;;;1.13;;
12312;SDS011;6220;53.580;9.758;2023-08-01T11:36:25;1.13;;;0.73;;
12312;SDS011;6220;53.580;9.758;2023-08-01T11:38:52;1.50;;;0.90;;
12312;SDS011;6220;53.580;9.758;2023-08-01T11:41:18;4.17;;;3.40;;
12312;SDS011;6220;53.580;9.758;2023-08-01T11:43:44;2.10;;;1.20;;
12312;SDS011;6220;53.580;9.758;2023-08-01T11:46:09;1.60;;;0.80;;
12312;SDS011;6220;53.580;9.758;2023-08-01T11:48:35;0.80;;;0.80;;
12312;SDS011;6220;53.580;9.758;2023-08-01T11:51:01;1.00;;;0.90;;
12312;SDS011;6220;53.580;9.758;2023-08-01T11:53:27;0.73;;;0.73;;
12312;SDS011;6220;53.580;9.758;2023-08-01T11:55:54;1.00;;;0.90;;
12312;SDS011;6220;53.580;9.758;2023-08-01T11:58:28;2.50;;;1.00;;
12312;SDS011;6220;53.580;9.758;2023-08-01T12:01:10;0.90;;;0.77;;
12312;SDS011;6220;53.580;9.758;2023-08-01T12:03:46;0.77;;;0.77;;
12312;SDS011;6220;53.580;9.758;2023-08-01T12:06:18;1.67;;;1.30;;
12312;SDS011;6220;53.580;9.758;2023-08-01T12:08:45;1.30;;;1.00;;
12312;SDS011;6220;53.580;9.758;2023-08-01T12:11:24;1.97;;;1.30;;
12312;SDS011;6220;53.580;9.758;2023-08-01T12:14:10;1.90;;;1.10;;
12312;SDS011;6220;53.580;9.758;2023-08-01T12:16:38;2.50;;;1.13;;
12312;SDS011;6220;53.580;9.758;2023-08-01T12:19:04;2.13;;;1.00;;
12312;SDS011;6220;53.580;9.758;2023-08-01T12:21:31;1.37;;;1.10;;
12312;SDS011;6220;53.580;9.758;2023-08-01T12:23:57;2.97;;;1.27;;
12312;SDS011;6220;53.580;9.758;2023-08-01T12:26:22;1.80;;;1.10;;
12312;SDS011;6220;53.580;9.758;2023-08-01T12:28:49;1.60;;;1.20;;
12312;SDS011;6220;53.580;9.758;2023-08-01T12:31:18;2.23;;;1.40;;
12312;SDS011;6220;53.580;9.758;2023-08-01T12:33:44;2.13;;;1.40;;
12312;SDS011;6220;53.580;9.758;2023-08-01T12:36:11;2.63;;;1.57;;
12312;SDS011;6220;53.580;9.758;2023-08-01T12:38:37;3.10;;;1.80;;
12312;SDS011;6220;53.580;9.758;2023-08-01T12:41:03;4.17;;;1.27;;
12312;SDS011;6220;53.580;9.758;2023-08-01T12:43:28;1.27;;;0.97;;
12312;SDS011;6220;53.580;9.758;2023-08-01T12:45:54;2.77;;;1.10;;
12312;SDS011;6220;53.580;9.758;2023-08-01T12:48:20;3.10;;;1.30;;
12312;SDS011;6220;53.580;9.758;2023-08-01T12:50:46;1.50;;;1.10;;
12312;SDS011;6220;53.580;9.758;2023-08-01T12:53:12;1.77;;;1.13;;
12312;SDS011;6220;53.580;9.758;2023-08-01T12:55:37;1.90;;;1.30;;
12312;SDS011;6220;53.580;9.758;2023-08-01T12:58:03;4.37;;;1.73;;
12312;SDS011;6220;53.580;9.758;2023-08-01T13:00:29;2.07;;;1.53;;
12312;SDS011;6220;53.580;9.758;2023-08-01T13:02:55;1.10;;;1.00;;
12312;SDS011;6220;53.580;9.758;2023-08-01T13:05:20;1.57;;;1.13;;
12312;SDS011;6220;53.580;9.758;2023-08-01T13:07:46;1.70;;;1.27;;
12312;SDS011;6220;53.580;9.758;2023-08-01T13:10:14;4.03;;;1.30;;
12312;SDS011;6220;53.580;9.758;2023-08-01T13:12:40;2.17;;;1.50;;
12312;SDS011;6220;53.580;9.758;2023-08-01T13:15:05;1.73;;;1.37;;
12312;SDS011;6220;53.580;9.758;2023-08-01T13:17:32;4.20;;;1.30;;
12312;SDS011;6220;53.580;9.758;2023-08-01T13:19:57;2.80;;;1.60;;
12312;SDS011;6220;53.580;9.758;2023-08-01T13:22:22;3.33;;;1.90;;
12312;SDS011;6220;53.580;9.758;2023-08-01T13:24:49;3.60;;;1.87;;
12312;SDS011;6220;53.580;9.758;2023-08-01T13:27:15;3.07;;;1.77;;
12312;SDS011;6220;53.580;9.758;2023-08-01T13:29:40;2.20;;;1.57;;
12312;SDS011;6220;53.580;9.758;2023-08-01T13:32:06;2.13;;;1.70;;
12312;SDS011;6220;53.580;9.758;2023-08-01T13:34:31;2.17;;;1.40;;
12312;SDS011;6220;53.580;9.758;2023-08-01T13:36:57;3.00;;;1.80;;
12312;SDS011;6220;53.580;9.758;2023-08-01T13:39:23;2.47;;;1.70;;
12312;SDS011;6220;53.580;9.758;2023-08-01T13:41:48;2.93;;;1.73;;
12312;SDS011;6220;53.580;9.758;2023-08-01T13:44:14;2.20;;;1.70;;
12312;SDS011;6220;53.580;9.758;2023-08-01T13:46:39;2.43;;;1.57;;
12312;SDS011;6220;53.580;9.758;2023-08-01T13:49:06;2.23;;;1.30;;
12312;SDS011;6220;53.580;9.758;2023-08-01T13:51:34;2.23;;;1.50;;
12312;SDS011;6220;53.580;9.758;2023-08-01T13:53:59;3.33;;;1.50;;
12312;SDS011;6220;53.580;9.758;2023-08-01T13:56:25;5.87;;;1.47;;
12312;SDS011;6220;53.580;9.758;2023-08-01T13:58:50;1.30;;;0.90;;
12312;SDS011;6220;53.580;9.758;2023-08-01T14:01:17;2.83;;;1.00;;
12312;SDS011;6220;53.580;9.758;2023-08-01T14:03:44;2.47;;;0.80;;
12312;SDS011;6220;53.580;9.758;2023-08-01T14:06:12;0.87;;;0.80;;
12312;SDS011;6220;53.580;9.758;2023-08-01T14:08:39;1.03;;;0.73;;
12312;SDS011;6220;53.580;9.758;2023-08-01T14:11:06;1.17;;;0.67;;
12312;SDS011;6220;53.580;9.758;2023-08-01T14:13:32;0.60;;;0.60;;
12312;SDS011;6220;53.580;9.758;2023-08-01T14:15:58;1.13;;;0.60;;
12312;SDS011;6220;53.580;9.758;2023-08-01T14:18:24;0.63;;;0.63;;
12312;SDS011;6220;53.580;9.758;2023-08-01T14:20:49;1.60;;;0.90;;
12312;SDS011;6220;53.580;9.758;2023-08-01T14:23:18;1.13;;;0.90;;
12312;SDS011;6220;53.580;9.758;2023-08-01T14:25:44;2.33;;;1.67;;
12312;SDS011;6220;53.580;9.758;2023-08-01T14:28:11;3.53;;;2.63;;
12312;SDS011;6220;53.580;9.758;2023-08-01T14:30:37;1.60;;;0.90;;
12312;SDS011;6220;53.580;9.758;2023-08-01T14:33:05;1.53;;;0.80;;
12312;SDS011;6220;53.580;9.758;2023-08-01T14:35:33;2.70;;;0.93;;
12312;SDS011;6220;53.580;9.758;2023-08-01T14:38:02;1.30;;;1.00;;
12312;SDS011;6220;53.580;9.758;2023-08-01T14:40:30;1.07;;;0.77;;
12312;SDS011;6220;53.580;9.758;2023-08-01T14:42:55;1.13;;;0.90;;
12312;SDS011;6220;53.580;9.758;2023-08-01T14:45:21;1.30;;;0.97;;
12312;SDS011;6220;53.580;9.758;2023-08-01T14:47:47;2.73;;;1.27;;
12312;SDS011;6220;53.580;9.758;2023-08-01T14:50:12;1.70;;;1.00;;
12312;SDS011;6220;53.580;9.758;2023-08-01T14:52:38;3.03;;;1.53;;
12312;SDS011;6220;53.580;9.758;2023-08-01T14:55:05;3.37;;;1.20;;
12312;SDS011;6220;53.580;9.758;2023-08-01T14:57:30;2.60;;;1.30;;
12312;SDS011;6220;53.580;9.758;2023-08-01T14:59:56;3.13;;;1.30;;
12312;SDS011;6220;53.580;9.758;2023-08-01T15:02:21;3.17;;;1.40;;
12312;SDS011;6220;53.580;9.758;2023-08-01T15:04:50;1.20;;;1.10;;